Vincenzo-padre — IFGZ — position and weather

sailwx.info

Track history (hours):
 
Tides and Currents Weather Stations Pressure Air Temp Water Temp Dewpoint Dewpoint Depression Visibility Wind Speed Wind Dir Waves Ship Positions

Vincenzo-padre

Last reported at 2018-May-28 00:39 UTC. Time now 2018-Jun-21 19:38 UTC.
Position N 38°60' E 014°53'.
Warning: this ship's position is 24 days out of date.

Length 29 m.

Type: Fishing. MMSI: 247151120.

Date/timePositionNaut miles runAvg speedWind from/ knotsBaromVisibWave heightAir tempDewpointWater temp
2018-May-28 00:39N 38°60' E 014°53'0 0.5
2018-May-28 00:28N 38°60' E 014°53'0 0.5
2018-May-27 23:53N 38°59' E 014°53'0 0.5
2018-May-27 23:09N 38°59' E 014°53'0 0.5
2018-May-27 22:59N 38°59' E 014°53'0 0.5
2018-May-27 22:30N 38°59' E 014°52'  
2018-May-23 13:12N 38°38' E 013°30'0 2.1
2018-May-23 12:59N 38°38' E 013°29'1 2.2
2018-May-23 12:19N 38°38' E 013°28'1 2.3
2018-May-23 11:41N 38°37' E 013°26'0 2.2
2018-May-23 11:30N 38°37' E 013°26'2 2.3
2018-May-23 10:45N 38°36' E 013°24'1 2.3
2018-May-23 10:27N 38°36' E 013°23'1 2.3
2018-May-23 09:58N 38°36' E 013°21'10 2.3
2018-May-23 05:39N 38°33' E 013°09'0 1.9
2018-May-23 05:30N 38°33' E 013°09'1 1.9
2018-May-23 04:49N 38°32' E 013°07'2 2.0
2018-May-23 03:46N 38°32' E 013°05'1 1.9
2018-May-23 03:27N 38°31' E 013°04'3 2.0
2018-May-23 01:44N 38°30' E 012°60'  
Track history (hours):
 
Tides and Currents Weather Stations Pressure Air Temp Water Temp Dewpoint Dewpoint Depression Visibility Wind Speed Wind Dir Waves Ship Positions

Vincenzo-padre

Last reported at 2018-May-28 00:39 UTC. Time now 2018-Jun-21 19:38 UTC.
Position N 38°60' E 014°53'.
Warning: this ship's position is 24 days out of date.

Length 29 m.

Type: Fishing. MMSI: 247151120.

Date/timePositionNaut miles runAvg speedWind from/ knotsBaromVisibWave heightAir tempDewpointWater temp
2018-May-28 00:39N 38°60' E 014°53'0 0.5
2018-May-28 00:28N 38°60' E 014°53'0 0.5
2018-May-27 23:53N 38°59' E 014°53'0 0.5
2018-May-27 23:09N 38°59' E 014°53'0 0.5
2018-May-27 22:59N 38°59' E 014°53'0 0.5
2018-May-27 22:30N 38°59' E 014°52'  
2018-May-23 13:12N 38°38' E 013°30'0 2.1
2018-May-23 12:59N 38°38' E 013°29'1 2.2
2018-May-23 12:19N 38°38' E 013°28'1 2.3
2018-May-23 11:41N 38°37' E 013°26'0 2.2
2018-May-23 11:30N 38°37' E 013°26'2 2.3
2018-May-23 10:45N 38°36' E 013°24'1 2.3
2018-May-23 10:27N 38°36' E 013°23'1 2.3
2018-May-23 09:58N 38°36' E 013°21'10 2.3
2018-May-23 05:39N 38°33' E 013°09'0 1.9
2018-May-23 05:30N 38°33' E 013°09'1 1.9
2018-May-23 04:49N 38°32' E 013°07'2 2.0
2018-May-23 03:46N 38°32' E 013°05'1 1.9
2018-May-23 03:27N 38°31' E 013°04'3 2.0
2018-May-23 01:44N 38°30' E 012°60'  

Dump ship's entire track history